createdAt,value
2022-11-14T00:00:12.227Z,2.53
2022-11-14T00:03:07.037Z,2.49
2022-11-14T00:05:53.747Z,2.61
2022-11-14T00:08:42.155Z,2.64
2022-11-14T00:11:28.379Z,2.64
2022-11-14T00:14:16.073Z,2.60
2022-11-14T00:17:02.553Z,2.51
2022-11-14T00:19:50.365Z,2.61
2022-11-14T00:22:36.946Z,2.44
2022-11-14T00:25:25.862Z,2.30
2022-11-14T00:28:12.722Z,2.36
2022-11-14T00:31:00.226Z,2.37
2022-11-14T00:33:46.431Z,2.36
2022-11-14T00:36:34.216Z,2.33
2022-11-14T00:39:20.692Z,2.22
2022-11-14T00:42:10.805Z,2.21
2022-11-14T00:44:57.183Z,2.36
2022-11-14T00:47:44.919Z,2.22
2022-11-14T00:50:31.468Z,2.34
2022-11-14T00:53:18.985Z,2.06
2022-11-14T00:56:05.969Z,2.08
2022-11-14T00:58:55.028Z,1.99
2022-11-14T01:01:41.313Z,2.08
2022-11-14T01:04:29.255Z,2.05
2022-11-14T01:07:15.588Z,2.13
2022-11-14T01:10:03.344Z,2.11
2022-11-14T01:12:50.271Z,2.11
2022-11-14T01:15:41.840Z,2.23
2022-11-14T01:18:28.965Z,2.12
2022-11-14T01:21:16.784Z,2.02
2022-11-14T01:24:03.561Z,2.05
2022-11-14T01:26:51.257Z,1.99
2022-11-14T01:29:38.165Z,1.94
2022-11-14T01:32:27.758Z,2.06
2022-11-14T01:35:14.546Z,2.08
2022-11-14T01:38:02.332Z,2.13
2022-11-14T01:40:48.745Z,2.16
2022-11-14T01:43:39.187Z,2.05
2022-11-14T01:46:29.669Z,2.04
2022-11-14T01:49:24.017Z,2.08
2022-11-14T01:52:13.507Z,2.09
2022-11-14T01:55:01.658Z,2.09
2022-11-14T01:57:49.486Z,2.02
2022-11-14T02:00:37.335Z,2.05
2022-11-14T02:03:24.292Z,1.98
2022-11-14T02:06:17.597Z,2.02
2022-11-14T02:09:06.544Z,1.93
2022-11-14T02:11:55.671Z,1.91
2022-11-14T02:14:45.191Z,1.93
2022-11-14T02:17:34.513Z,1.84
2022-11-14T02:20:28.446Z,1.81
2022-11-14T02:23:17.811Z,1.85
2022-11-14T02:26:04.983Z,1.81
2022-11-14T02:28:51.548Z,1.77
2022-11-14T02:31:39.350Z,1.85
2022-11-14T02:34:25.531Z,1.84
2022-11-14T02:37:14.380Z,1.81
2022-11-14T02:40:00.739Z,1.78
2022-11-14T02:42:48.513Z,1.74
2022-11-14T02:45:35.402Z,1.88
2022-11-14T02:48:23.168Z,1.95
2022-11-14T02:51:09.673Z,1.84
2022-11-14T02:53:58.684Z,1.94
2022-11-14T02:56:45.389Z,1.93
2022-11-14T02:59:33.576Z,1.97
2022-11-14T03:02:20.062Z,1.94
2022-11-14T03:05:09.659Z,2.11
2022-11-14T03:07:56.692Z,2.11
2022-11-14T03:10:45.718Z,1.95
2022-11-14T03:13:32.107Z,2.01
2022-11-14T03:16:19.678Z,2.11
2022-11-14T03:19:06.188Z,2.19
2022-11-14T03:21:53.715Z,2.25
2022-11-14T03:24:39.933Z,2.34
2022-11-14T03:27:28.995Z,2.33
2022-11-14T03:30:15.729Z,2.50
2022-11-14T03:33:04.485Z,2.44
2022-11-14T03:35:50.886Z,2.34
2022-11-14T03:38:38.265Z,2.61
2022-11-14T03:41:25.190Z,2.44
2022-11-14T03:44:14.186Z,2.40
2022-11-14T03:47:03.268Z,2.29
2022-11-14T03:49:50.255Z,2.32
2022-11-14T03:52:36.647Z,2.34
2022-11-14T03:55:24.507Z,1.98
2022-11-14T03:58:11.037Z,1.94
2022-11-14T04:01:00.070Z,1.98
2022-11-14T04:03:46.883Z,2.01
2022-11-14T04:06:34.466Z,1.98
2022-11-14T04:09:21.018Z,1.98
2022-11-14T04:12:12.820Z,1.95
2022-11-14T04:15:02.995Z,1.88
2022-11-14T04:17:52.832Z,1.82
2022-11-14T04:20:39.411Z,1.85
2022-11-14T04:23:26.103Z,1.98
2022-11-14T04:26:12.617Z,1.99
2022-11-14T04:29:00.298Z,1.94
2022-11-14T04:31:46.856Z,1.91
2022-11-14T04:34:35.740Z,1.94
2022-11-14T04:37:22.138Z,1.88
2022-11-14T04:40:12.976Z,1.66
2022-11-14T04:42:59.220Z,1.71
2022-11-14T04:45:47.025Z,1.84
2022-11-14T04:48:33.604Z,1.80
2022-11-14T04:51:22.445Z,1.88
2022-11-14T04:54:08.994Z,1.84
2022-11-14T04:56:56.405Z,1.81
2022-11-14T04:59:43.991Z,1.61
2022-11-14T05:02:33.395Z,1.60
2022-11-14T05:05:19.929Z,1.71
2022-11-14T05:08:09.058Z,1.71
2022-11-14T05:10:55.288Z,1.75
2022-11-14T05:13:45.506Z,1.78
2022-11-14T05:16:33.209Z,1.87
2022-11-14T05:19:20.641Z,1.82
2022-11-14T05:22:07.155Z,1.78
2022-11-14T05:24:56.264Z,1.70
2022-11-14T05:27:42.633Z,1.60
2022-11-14T05:30:30.204Z,1.64
2022-11-14T05:33:17.052Z,1.75
2022-11-14T05:36:05.516Z,2.01
2022-11-14T05:38:52.197Z,2.11
2022-11-14T05:41:41.371Z,2.28
2022-11-14T05:44:27.782Z,2.46
2022-11-14T05:47:15.320Z,2.61
2022-11-14T05:50:03.192Z,2.64
2022-11-14T05:52:50.775Z,2.83
2022-11-14T05:55:37.076Z,2.80
2022-11-14T05:58:26.371Z,2.78
2022-11-14T06:01:15.384Z,2.68
2022-11-14T06:04:03.086Z,2.65
2022-11-14T06:06:50.691Z,2.64
2022-11-14T06:09:38.311Z,2.67
2022-11-14T06:12:26.733Z,2.74
2022-11-14T06:15:15.745Z,2.85
2022-11-14T06:18:02.044Z,2.80
2022-11-14T06:20:49.929Z,2.87
2022-11-14T06:23:37.224Z,2.80
2022-11-14T06:26:26.443Z,2.84
2022-11-14T06:29:15.668Z,2.75
2022-11-14T06:32:04.925Z,2.68
2022-11-14T06:34:51.640Z,2.70
2022-11-14T06:37:39.413Z,2.70
2022-11-14T06:40:25.900Z,2.67
2022-11-14T06:43:13.609Z,2.62
2022-11-14T06:46:00.187Z,2.61
2022-11-14T06:48:50.603Z,2.54
2022-11-14T06:51:37.030Z,2.54
2022-11-14T06:54:24.875Z,2.71
2022-11-14T06:57:11.308Z,2.68
2022-11-14T06:59:58.650Z,2.68
2022-11-14T07:02:46.931Z,2.71
2022-11-14T07:05:35.731Z,2.78
2022-11-14T07:08:22.695Z,2.71
2022-11-14T07:11:11.820Z,2.70
2022-11-14T07:14:00.469Z,2.61
2022-11-14T07:16:48.614Z,2.78
2022-11-14T07:19:35.286Z,2.83
2022-11-14T07:22:24.128Z,2.98
2022-11-14T07:25:10.989Z,3.23
2022-11-14T07:27:59.007Z,3.15
2022-11-14T07:30:45.501Z,2.99
2022-11-14T07:33:33.466Z,2.81
2022-11-14T07:36:20.133Z,3.01
2022-11-14T07:39:09.273Z,3.22
2022-11-14T07:41:55.807Z,3.30
2022-11-14T07:44:45.008Z,3.38
2022-11-14T07:47:31.225Z,3.27
2022-11-14T07:50:20.586Z,3.29
2022-11-14T07:53:07.189Z,3.30
2022-11-14T07:55:57.046Z,3.46
2022-11-14T07:58:43.546Z,3.37
2022-11-14T08:01:30.993Z,3.38
2022-11-14T08:04:17.710Z,3.41
2022-11-14T08:07:05.578Z,3.50
2022-11-14T08:09:52.496Z,3.61
2022-11-14T08:12:41.891Z,3.70
2022-11-14T08:15:29.074Z,3.88
2022-11-14T08:18:16.481Z,3.99
2022-11-14T08:21:05.265Z,4.18
2022-11-14T08:23:52.600Z,4.13
2022-11-14T08:26:39.583Z,4.16
2022-11-14T08:29:28.455Z,4.20
2022-11-14T08:32:15.788Z,4.24
2022-11-14T08:35:03.587Z,4.29
2022-11-14T08:37:50.503Z,4.36
2022-11-14T08:40:38.051Z,4.45
2022-11-14T08:43:24.621Z,4.45
2022-11-14T08:46:13.684Z,4.54
2022-11-14T08:49:00.392Z,4.58
2022-11-14T08:51:48.210Z,4.67
2022-11-14T08:54:34.649Z,4.72
2022-11-14T08:57:21.882Z,4.79
2022-11-14T09:00:10.135Z,4.83
2022-11-14T09:02:59.282Z,4.89
2022-11-14T09:05:51.832Z,4.96
2022-11-14T09:08:39.420Z,5.06
2022-11-14T09:11:26.226Z,5.14
2022-11-14T09:14:15.469Z,5.17
2022-11-14T09:17:06.155Z,5.16
2022-11-14T09:19:56.227Z,5.28
2022-11-14T09:22:43.062Z,5.31
2022-11-14T09:25:31.577Z,5.35
2022-11-14T09:28:18.494Z,5.44
2022-11-14T09:31:08.272Z,5.44
2022-11-14T09:33:55.554Z,5.48
2022-11-14T09:36:43.427Z,5.58
2022-11-14T09:39:31.007Z,5.65
2022-11-14T09:42:31.479Z,5.73
2022-11-14T09:45:19.535Z,5.83
2022-11-14T09:48:09.606Z,5.83
2022-11-14T09:51:08.092Z,5.87
2022-11-14T09:54:06.196Z,5.97
2022-11-14T09:56:55.794Z,6.10
2022-11-14T09:59:42.175Z,6.13
2022-11-14T10:02:41.734Z,6.21
2022-11-14T10:05:45.760Z,6.28
2022-11-14T10:08:47.996Z,6.45
2022-11-14T10:11:40.600Z,6.44
2022-11-14T10:14:49.241Z,6.50
2022-11-14T10:17:57.500Z,6.52
2022-11-14T10:20:49.772Z,6.65
2022-11-14T10:23:47.271Z,6.80
2022-11-14T10:26:40.183Z,6.87
2022-11-14T10:29:45.978Z,6.93
2022-11-14T10:32:56.122Z,7.04
2022-11-14T10:35:47.060Z,7.17
2022-11-14T10:38:40.417Z,7.17
2022-11-14T10:41:54.938Z,7.32
2022-11-14T10:44:40.756Z,7.63
2022-11-14T10:47:31.663Z,8.20
2022-11-14T10:50:21.948Z,8.56
2022-11-14T10:53:19.550Z,8.70
2022-11-14T10:56:13.207Z,8.81
2022-11-14T10:58:59.791Z,8.80
2022-11-14T11:01:55.963Z,8.80
2022-11-14T11:04:44.303Z,8.94
2022-11-14T11:07:49.050Z,9.02
2022-11-14T11:10:56.387Z,8.94
2022-11-14T11:13:54.470Z,9.11
2022-11-14T11:16:40.686Z,9.14
2022-11-14T11:19:31.518Z,9.15
2022-11-14T11:22:39.693Z,9.18
2022-11-14T11:25:30.165Z,9.33
2022-11-14T11:28:18.778Z,9.40
2022-11-14T11:31:08.076Z,9.32
2022-11-14T11:33:55.587Z,9.46
2022-11-14T11:36:50.416Z,9.51
2022-11-14T11:39:41.779Z,9.54
2022-11-14T11:43:23.633Z,9.65
2022-11-14T11:45:47.332Z,9.69
2022-11-14T11:48:39.358Z,9.78
2022-11-14T11:51:28.102Z,9.84
2022-11-14T11:54:20.084Z,9.81
2022-11-14T11:57:18.522Z,9.77
2022-11-14T12:00:17.544Z,9.80
2022-11-14T12:03:04.586Z,9.81
2022-11-14T12:06:01.407Z,9.91
2022-11-14T12:09:06.875Z,10.03
2022-11-14T12:11:59.342Z,10.10
2022-11-14T12:14:55.997Z,10.20
2022-11-14T12:18:06.639Z,10.19
2022-11-14T12:21:20.504Z,10.44
2022-11-14T12:24:52.331Z,10.53
2022-11-14T12:28:10.824Z,10.54
2022-11-14T12:31:00.796Z,10.69
2022-11-14T12:33:52.732Z,10.82
2022-11-14T12:36:42.710Z,10.88
2022-11-14T12:39:30.754Z,10.98
2022-11-14T12:42:22.750Z,11.05
2022-11-14T12:45:39.418Z,11.02
2022-11-14T12:48:34.529Z,11.19
2022-11-14T12:51:50.227Z,11.64
2022-11-14T12:54:45.253Z,12.29
2022-11-14T12:57:49.450Z,12.45
2022-11-14T13:00:40.024Z,12.48
2022-11-14T13:03:42.612Z,12.68
2022-11-14T13:06:42.604Z,13.36
2022-11-14T13:09:34.990Z,14.03
2022-11-14T13:16:10.009Z,13.38
2022-11-14T13:19:21.815Z,13.92
2022-11-14T13:22:40.734Z,13.74
2022-11-14T13:25:28.769Z,14.16
2022-11-14T13:28:48.087Z,12.34
2022-11-14T13:31:50.980Z,12.20
2022-11-14T13:34:53.151Z,11.65
2022-11-14T13:38:17.621Z,11.26
2022-11-14T13:41:24.410Z,11.20
2022-11-14T13:44:35.614Z,11.02
2022-11-14T13:47:42.723Z,10.85
2022-11-14T13:50:35.501Z,10.68
2022-11-14T13:53:25.628Z,10.57
2022-11-14T13:56:34.368Z,10.50
2022-11-14T13:59:37.558Z,10.54
2022-11-14T14:02:43.539Z,10.37
2022-11-14T14:05:42.806Z,10.40
2022-11-14T14:08:49.895Z,10.40
2022-11-14T14:11:54.470Z,10.32
2022-11-14T14:15:03.271Z,10.40
2022-11-14T14:17:59.612Z,10.44
2022-11-14T14:20:53.844Z,10.37
2022-11-14T14:23:47.208Z,10.41
2022-11-14T14:26:44.595Z,10.43
2022-11-14T14:29:43.895Z,10.30
2022-11-14T14:32:31.461Z,10.40
2022-11-14T14:35:24.589Z,10.37
2022-11-14T14:38:15.089Z,10.25
2022-11-14T14:41:02.668Z,10.19
2022-11-14T14:43:55.202Z,10.15
2022-11-14T14:46:42.976Z,10.01
2022-11-14T14:49:31.695Z,10.05
2022-11-14T14:52:23.524Z,10.03
2022-11-14T14:55:21.930Z,10.03
2022-11-14T14:58:22.216Z,10.01
2022-11-14T15:01:13.415Z,9.91
2022-11-14T15:04:05.313Z,9.88
2022-11-14T15:06:52.935Z,9.77
2022-11-14T15:09:40.622Z,9.55
2022-11-14T15:12:30.953Z,9.37
2022-11-14T15:15:21.356Z,9.35
2022-11-14T15:18:15.079Z,9.35
2022-11-14T15:21:11.245Z,9.40
2022-11-14T15:24:03.345Z,9.39
2022-11-14T15:26:52.786Z,9.37
2022-11-14T15:29:46.892Z,9.15
2022-11-14T15:32:35.244Z,9.07
2022-11-14T15:35:32.096Z,9.15
2022-11-14T15:41:32.787Z,9.09
2022-11-14T15:44:34.318Z,8.94
2022-11-14T15:47:24.459Z,8.94
2022-11-14T15:50:30.332Z,8.87
2022-11-14T15:53:24.708Z,8.88
2022-11-14T15:56:14.665Z,8.88
2022-11-14T15:59:02.636Z,8.78
2022-11-14T16:01:52.928Z,8.63
2022-11-14T16:04:47.238Z,8.52
2022-11-14T16:07:34.489Z,8.60
2022-11-14T16:10:24.632Z,8.31
2022-11-14T16:13:11.566Z,8.09
2022-11-14T16:15:58.961Z,8.08
2022-11-14T16:18:45.303Z,8.09
2022-11-14T16:21:34.000Z,8.02
2022-11-14T16:24:22.792Z,7.83
2022-11-14T16:27:11.090Z,7.76
2022-11-14T16:29:57.758Z,7.81
2022-11-14T16:32:47.522Z,7.80
2022-11-14T16:35:33.813Z,7.73
2022-11-14T16:38:22.790Z,7.60
2022-11-14T16:41:10.411Z,7.55
2022-11-14T16:43:59.258Z,7.41
2022-11-14T16:46:47.011Z,7.45
2022-11-14T16:49:34.660Z,7.43
2022-11-14T16:52:21.328Z,7.43
2022-11-14T16:55:12.196Z,7.55
2022-11-14T16:57:58.862Z,7.62
2022-11-14T17:00:46.838Z,7.80
2022-11-14T17:03:33.704Z,7.94
2022-11-14T17:06:21.870Z,8.22
2022-11-14T17:09:08.484Z,8.39
2022-11-14T17:11:57.433Z,8.50
2022-11-14T17:14:45.324Z,8.57
2022-11-14T17:17:33.159Z,8.73
2022-11-14T17:20:19.926Z,8.71
2022-11-14T17:23:07.606Z,9.09
2022-11-14T17:26:02.700Z,9.01
2022-11-14T17:28:51.639Z,8.83
2022-11-14T17:31:40.269Z,8.78
2022-11-14T17:34:31.497Z,8.91
2022-11-14T17:37:18.117Z,8.84
2022-11-14T17:40:10.221Z,9.04
2022-11-14T17:43:01.228Z,9.14
2022-11-14T17:45:57.187Z,9.12
2022-11-14T17:48:43.633Z,9.08
2022-11-14T17:51:31.326Z,9.14
2022-11-14T17:54:18.007Z,9.05
2022-11-14T17:57:05.735Z,9.16
2022-11-14T17:59:53.087Z,9.08
2022-11-14T18:02:41.994Z,9.04
2022-11-14T18:05:28.832Z,8.81
2022-11-14T18:08:17.998Z,8.68
2022-11-14T18:11:06.660Z,8.66
2022-11-14T18:13:56.330Z,8.66
2022-11-14T18:17:10.402Z,8.47
2022-11-14T18:19:51.294Z,8.36
2022-11-14T18:22:37.821Z,8.36
2022-11-14T18:25:25.537Z,8.47
2022-11-14T18:28:11.881Z,8.94
2022-11-14T18:30:59.661Z,9.09
2022-11-14T18:33:46.302Z,9.37
2022-11-14T18:36:35.185Z,9.36
2022-11-14T18:39:21.753Z,9.33
2022-11-14T18:42:09.490Z,9.33
2022-11-14T18:44:55.850Z,9.39
2022-11-14T18:47:43.440Z,9.33
2022-11-14T18:50:32.084Z,9.28
2022-11-14T18:53:21.239Z,9.23
2022-11-14T18:56:10.084Z,9.25
2022-11-14T18:58:58.206Z,9.18
2022-11-14T19:01:45.181Z,9.14
2022-11-14T19:04:35.517Z,9.05
2022-11-14T19:07:21.939Z,9.02
2022-11-14T19:10:19.824Z,8.98
2022-11-14T19:13:06.178Z,8.97
2022-11-14T19:15:53.738Z,8.83
2022-11-14T19:18:40.591Z,8.80
2022-11-14T19:21:28.909Z,8.84
2022-11-14T19:24:15.463Z,8.81
2022-11-14T19:27:04.287Z,8.77
2022-11-14T19:29:51.357Z,8.78
2022-11-14T19:32:39.132Z,8.78
2022-11-14T19:35:26.013Z,8.71
2022-11-14T19:38:13.234Z,8.73
2022-11-14T19:41:04.535Z,8.77
2022-11-14T19:43:54.125Z,8.81
2022-11-14T19:46:45.879Z,8.71
2022-11-14T19:49:34.484Z,8.60
2022-11-14T19:52:20.911Z,8.64
2022-11-14T19:55:09.457Z,8.66
2022-11-14T19:57:56.146Z,8.67
2022-11-14T20:00:45.257Z,8.74
2022-11-14T20:03:32.473Z,8.73
2022-11-14T20:06:22.264Z,8.60
2022-11-14T20:09:10.855Z,8.63
2022-11-14T20:11:58.641Z,8.67
2022-11-14T20:14:46.829Z,8.71
2022-11-14T20:17:35.835Z,8.74
2022-11-14T20:20:22.776Z,8.85
2022-11-14T20:23:11.394Z,8.98
2022-11-14T20:25:58.280Z,9.09
2022-11-14T20:28:47.821Z,9.61
2022-11-14T20:31:34.448Z,9.85
2022-11-14T20:34:23.903Z,9.91
2022-11-14T20:37:11.996Z,10.05
2022-11-14T20:39:59.876Z,10.01
2022-11-14T20:42:48.400Z,10.12
2022-11-14T20:45:36.159Z,10.12
2022-11-14T20:48:23.043Z,10.10
2022-11-14T20:51:14.718Z,10.10
2022-11-14T20:54:01.440Z,10.26
2022-11-14T20:56:49.243Z,10.23
2022-11-14T20:59:36.057Z,10.33
2022-11-14T21:02:23.694Z,10.40
2022-11-14T21:05:11.252Z,10.34
2022-11-14T21:08:00.175Z,10.40
2022-11-14T21:10:48.729Z,10.44
2022-11-14T21:13:54.019Z,10.37
2022-11-14T21:16:40.766Z,10.41
2022-11-14T21:19:29.726Z,10.46
2022-11-14T21:22:16.425Z,10.39
2022-11-14T21:25:05.940Z,10.30
2022-11-14T21:27:52.758Z,10.16
2022-11-14T21:30:40.510Z,10.05
2022-11-14T21:33:28.020Z,9.81
2022-11-14T21:36:43.909Z,9.85
2022-11-14T21:39:23.562Z,9.77
2022-11-14T21:42:18.047Z,9.69
2022-11-14T21:45:05.869Z,9.55
2022-11-14T21:47:53.790Z,9.36
2022-11-14T21:50:40.436Z,9.26
2022-11-14T21:53:29.701Z,9.25
2022-11-14T21:56:18.090Z,9.11
2022-11-14T21:59:16.426Z,9.25
2022-11-14T22:02:20.836Z,9.22
2022-11-14T22:05:09.118Z,9.14
2022-11-14T22:07:55.983Z,9.05
2022-11-14T22:10:43.682Z,9.09
2022-11-14T22:13:31.983Z,9.04
2022-11-14T22:16:21.455Z,8.80
2022-11-14T22:19:08.014Z,8.75
2022-11-14T22:21:55.817Z,8.73
2022-11-14T22:24:42.211Z,8.74
2022-11-14T22:27:29.805Z,8.57
2022-11-14T22:30:17.165Z,8.68
2022-11-14T22:33:06.279Z,8.73
2022-11-14T22:35:53.486Z,8.66
2022-11-14T22:38:41.095Z,8.67
2022-11-14T22:41:32.752Z,8.47
2022-11-14T22:44:20.000Z,8.57
2022-11-14T22:47:07.860Z,8.60
2022-11-14T22:49:55.768Z,8.64
2022-11-14T22:52:43.563Z,8.84
2022-11-14T22:55:30.301Z,8.92
2022-11-14T22:58:18.140Z,8.91
2022-11-14T23:01:12.143Z,8.98
2022-11-14T23:04:01.152Z,9.09
2022-11-14T23:06:49.353Z,9.23
2022-11-14T23:09:36.871Z,9.29
2022-11-14T23:12:23.712Z,9.33
2022-11-14T23:15:11.710Z,9.30
2022-11-14T23:17:59.470Z,9.32
2022-11-14T23:20:47.633Z,9.39
2022-11-14T23:23:36.133Z,9.44
2022-11-14T23:26:24.560Z,9.46
2022-11-14T23:29:14.398Z,9.48
2022-11-14T23:32:02.705Z,9.50
2022-11-14T23:34:50.212Z,9.55
2022-11-14T23:37:38.069Z,9.61
2022-11-14T23:40:25.762Z,9.67
2022-11-14T23:43:13.553Z,9.74
2022-11-14T23:46:00.175Z,9.73
2022-11-14T23:48:47.424Z,9.78
2022-11-14T23:51:34.060Z,9.75
2022-11-14T23:54:21.661Z,9.82
2022-11-14T23:57:10.215Z,9.87
2022-11-14T23:59:56.742Z,9.92
